Time;durP1;ratioP1;P1;durP2;ratioP2;P2;SDS_P1;SDS_P2;PMS_P1;PMS_P2;Temp;Humidity;BMP_temperature;BMP_pressure;BME280_temperature;BME280_humidity;BME280_pressure;Samples;Min_cycle;Max_cycle;Signal;HPM_P1;HPM_P2
2021/03/23 00:01:34;;;;;;;9.00;5.80;;;;;;;4.87;66.55;96261.00;5013107;28;20632;-83
2021/03/23 00:04:19;;;;;;;8.40;5.53;;;;;;;4.89;66.38;96253.22;4980497;28;20268;-85
2021/03/23 00:06:47;;;;;;;7.87;5.07;;;;;;;4.85;66.61;96258.56;5011897;28;20227;-82
2021/03/23 00:09:13;;;;;;;9.23;5.13;;;;;;;4.88;66.56;96257.53;5011836;28;20230;-82
2021/03/23 00:11:44;;;;;;;6.20;5.40;;;;;;;4.91;66.33;96264.13;5012142;28;20718;-82
2021/03/23 00:14:13;;;;;;;10.53;5.00;;;;;;;4.90;66.20;96258.22;5011946;28;20229;-82
2021/03/23 00:16:43;;;;;;;10.40;5.10;;;;;;;4.88;66.17;96262.63;5012399;28;20195;-81
2021/03/23 00:19:13;;;;;;;7.07;5.10;;;;;;;4.89;66.35;96271.09;5012273;28;20218;-81
2021/03/23 00:21:40;;;;;;;10.40;5.23;;;;;;;4.84;66.64;96277.38;5011977;28;20226;-83
2021/03/23 00:24:10;;;;;;;7.70;5.17;;;;;;;4.84;66.41;96272.25;5012220;28;20238;-82
2021/03/23 00:26:36;;;;;;;9.00;5.27;;;;;;;4.84;66.63;96279.09;4992810;28;20231;-83
2021/03/23 00:29:02;;;;;;;8.30;5.20;;;;;;;4.81;66.52;96269.97;5006796;28;20223;-85
2021/03/23 00:31:31;;;;;;;7.30;5.30;;;;;;;4.81;66.74;96271.72;5012452;28;20235;-84
2021/03/23 00:33:58;;;;;;;8.40;5.03;;;;;;;4.82;66.43;96273.31;5012323;28;20231;-81
2021/03/23 00:36:29;;;;;;;7.43;5.37;;;;;;;4.81;66.54;96269.19;5012296;28;20227;-82
2021/03/23 00:38:56;;;;;;;8.97;5.07;;;;;;;4.84;66.39;96276.56;5012030;28;20234;-83
2021/03/23 00:41:23;;;;;;;7.50;5.23;;;;;;;4.83;66.18;96274.94;5011208;28;20253;-81
2021/03/23 00:43:49;;;;;;;8.40;5.33;;;;;;;4.89;65.90;96274.44;5012465;28;20195;-82
2021/03/23 00:46:18;;;;;;;10.57;5.00;;;;;;;4.91;66.11;96267.47;5011799;28;20219;-83
2021/03/23 00:48:46;;;;;;;8.27;5.60;;;;;;;4.93;66.03;96263.06;5012073;28;20297;-82
2021/03/23 00:51:12;;;;;;;8.67;5.40;;;;;;;4.93;65.71;96264.81;5011604;28;20246;-81
2021/03/23 00:53:42;;;;;;;8.53;5.57;;;;;;;4.89;66.26;96265.97;5012055;28;20222;-82
2021/03/23 00:56:07;;;;;;;8.50;5.40;;;;;;;4.87;65.85;96263.56;5012820;28;20313;-82
2021/03/23 00:58:33;;;;;;;11.27;5.90;;;;;;;4.88;66.28;96267.72;5016191;28;20199;-84
2021/03/23 01:00:59;;;;;;;8.63;5.43;;;;;;;4.87;66.40;96263.56;5015012;28;20233;-84
2021/03/23 01:03:25;;;;;;;9.53;5.90;;;;;;;4.79;66.61;96259.09;5015596;28;20249;-82
2021/03/23 01:05:55;;;;;;;7.73;5.73;;;;;;;4.80;66.76;96260.72;5015511;28;20285;-83
2021/03/23 01:08:26;;;;;;;10.63;6.23;;;;;;;4.79;66.32;96261.66;5015049;28;20261;-83
2021/03/23 01:10:52;;;;;;;9.27;5.93;;;;;;;4.77;66.80;96257.59;5015279;28;20245;-84
2021/03/23 01:13:25;;;;;;;9.47;6.03;;;;;;;4.72;66.86;96257.97;5014907;28;20203;-82
2021/03/23 01:15:51;;;;;;;8.07;5.77;;;;;;;4.65;66.90;96256.00;5015398;28;20249;-82
2021/03/23 01:18:18;;;;;;;8.13;5.60;;;;;;;4.61;67.23;96255.47;5015182;28;20897;-83
2021/03/23 01:20:44;;;;;;;6.57;5.17;;;;;;;4.53;67.50;96259.56;5014337;28;20226;-84
2021/03/23 01:23:17;;;;;;;8.87;5.57;;;;;;;4.55;67.60;96252.59;5014923;28;20226;-83
2021/03/23 01:25:43;;;;;;;8.00;5.57;;;;;;;4.61;67.43;96257.22;5014760;28;20227;-81
2021/03/23 01:28:10;;;;;;;9.43;5.87;;;;;;;4.58;67.75;96250.63;5016164;28;20199;-82
2021/03/23 01:30:37;;;;;;;8.50;5.93;;;;;;;4.50;68.02;96253.78;5014751;28;20309;-83
2021/03/23 01:33:07;;;;;;;7.37;5.80;;;;;;;4.43;68.21;96251.81;5014901;28;20227;-81
2021/03/23 01:35:37;;;;;;;7.93;5.80;;;;;;;4.47;67.89;96258.31;5014528;28;20227;-82
2021/03/23 01:38:03;;;;;;;7.87;6.20;;;;;;;4.40;68.05;96257.19;5014656;28;20305;-83
2021/03/23 01:40:38;;;;;;;9.43;6.07;;;;;;;4.39;68.51;96253.84;5015080;28;20684;-83
2021/03/23 01:43:25;;;;;;;9.33;6.20;;;;;;;4.39;68.18;96251.28;5014694;28;20218;-84
2021/03/23 01:45:52;;;;;;;8.87;5.50;;;;;;;4.39;68.47;96250.47;4999438;28;20227;-83
2021/03/23 01:48:30;;;;;;;8.27;5.77;;;;;;;4.33;68.74;96244.09;4996102;28;20238;-83
2021/03/23 01:50:58;;;;;;;9.20;5.80;;;;;;;4.39;68.51;96245.38;5011567;28;20607;-82
2021/03/23 01:53:36;;;;;;;11.10;5.83;;;;;;;4.44;68.16;96254.25;5001991;28;20223;-82
2021/03/23 01:56:07;;;;;;;8.93;6.07;;;;;;;4.46;68.31;96244.75;5000452;28;20250;-84
2021/03/23 01:58:43;;;;;;;8.63;6.20;;;;;;;4.50;67.77;96247.88;5015740;28;20214;-81
2021/03/23 02:01:16;;;;;;;8.60;5.77;;;;;;;4.47;68.14;96245.56;5015584;28;20274;-82
2021/03/23 02:03:45;;;;;;;8.50;6.77;;;;;;;4.40;68.67;96239.34;5015384;28;20866;-84
2021/03/23 02:06:40;;;;;;;10.00;6.30;;;;;;;4.41;68.65;96238.41;5015401;28;20222;-80
2021/03/23 02:09:11;;;;;;;10.10;6.80;;;;;;;4.41;68.53;96240.97;5014469;28;20706;-84
2021/03/23 02:11:45;;;;;;;7.97;5.90;;;;;;;4.42;68.51;96234.94;5015639;28;20218;-82
2021/03/23 02:14:15;;;;;;;9.20;7.27;;;;;;;4.42;68.29;96229.84;5015675;28;20230;-83
2021/03/23 02:16:41;;;;;;;9.13;6.47;;;;;;;4.42;68.33;96233.19;5015081;28;20253;-82
2021/03/23 02:19:11;;;;;;;10.60;6.47;;;;;;;4.35;68.87;96226.16;5015441;28;20211;-80
2021/03/23 02:21:47;;;;;;;9.40;6.67;;;;;;;4.35;69.12;96223.59;5014954;28;20222;-84
2021/03/23 02:24:15;;;;;;;11.17;6.57;;;;;;;4.37;68.67;96226.84;5014617;28;20222;-80
2021/03/23 02:26:42;;;;;;;11.17;6.87;;;;;;;4.38;68.37;96225.91;5015125;28;20245;-84
2021/03/23 02:29:15;;;;;;;10.77;6.77;;;;;;;4.37;68.83;96227.66;5015684;28;20222;-82
2021/03/23 02:31:53;;;;;;;10.77;6.87;;;;;;;4.38;68.85;96224.16;5014960;28;20467;-84
2021/03/23 02:34:28;;;;;;;9.03;6.73;;;;;;;4.37;68.55;96220.00;5014499;28;20233;-80
2021/03/23 02:36:56;;;;;;;11.47;6.60;;;;;;;4.35;68.80;96215.94;5013140;28;20244;-82
2021/03/23 02:39:27;;;;;;;10.43;6.87;;;;;;;4.38;68.20;96223.34;5015291;28;20231;-81
2021/03/23 02:41:55;;;;;;;10.73;7.20;;;;;;;4.36;68.54;96218.38;4995697;28;20254;-80
2021/03/23 02:44:21;;;;;;;8.77;6.70;;;;;;;4.31;68.86;96223.03;5014214;28;20222;-81
2021/03/23 02:46:47;;;;;;;8.70;6.60;;;;;;;4.28;68.58;96213.06;5014759;28;20227;-84
2021/03/23 02:49:15;;;;;;;10.97;7.20;;;;;;;4.26;68.93;96220.03;5014107;28;20194;-84
2021/03/23 02:51:41;;;;;;;9.43;7.17;;;;;;;4.21;69.10;96223.91;5013524;28;20248;-83
2021/03/23 02:54:11;;;;;;;9.70;6.50;;;;;;;4.23;68.95;96220.31;5014490;28;20234;-81
2021/03/23 02:56:37;;;;;;;12.40;7.27;;;;;;;4.25;69.38;96220.97;5014542;28;20238;-83
2021/03/23 02:59:03;;;;;;;10.80;7.07;;;;;;;4.25;68.84;96225.25;5014660;28;20226;-83
2021/03/23 03:01:35;;;;;;;10.23;7.07;;;;;;;4.27;69.18;96226.75;5014566;28;20225;-84
2021/03/23 03:04:07;;;;;;;10.37;7.00;;;;;;;4.26;68.74;96220.03;5014103;28;20229;-84
2021/03/23 03:06:33;;;;;;;11.70;7.37;;;;;;;4.27;68.63;96221.66;5014416;28;20651;-84
2021/03/23 03:09:01;;;;;;;11.37;7.43;;;;;;;4.25;68.90;96225.25;5015392;28;20226;-84
2021/03/23 03:11:31;;;;;;;10.50;7.20;;;;;;;4.21;69.01;96231.53;5018949;28;20231;-85
2021/03/23 03:13:57;;;;;;;9.37;6.93;;;;;;;4.18;69.64;96240.22;5014135;28;20248;-85
2021/03/23 03:16:26;;;;;;;11.10;7.70;;;;;;;4.16;69.44;96235.25;5013760;28;20218;-85
2021/03/23 03:18:51;;;;;;;10.73;7.90;;;;;;;4.16;69.58;96235.25;5014257;28;20230;-84
2021/03/23 03:21:17;;;;;;;11.37;8.47;;;;;;;4.19;69.08;96235.94;5013984;28;20230;-84
2021/03/23 03:23:44;;;;;;;11.50;7.50;;;;;;;4.14;69.76;96241.41;5013932;28;20757;-84
2021/03/23 03:26:12;;;;;;;10.67;8.37;;;;;;;4.17;69.21;96243.72;5013712;28;20242;-83
2021/03/23 03:28:39;;;;;;;11.37;7.73;;;;;;;4.12;69.80;96238.16;5013560;28;20212;-84
2021/03/23 03:31:06;;;;;;;12.47;7.73;;;;;;;4.09;69.83;96249.41;5014495;28;20195;-84
2021/03/23 03:33:32;;;;;;;11.03;7.43;;;;;;;4.12;69.84;96238.16;5014468;28;20230;-84
2021/03/23 03:35:58;;;;;;;13.03;8.63;;;;;;;4.11;69.97;96249.28;5013197;28;20227;-84
2021/03/23 03:38:26;;;;;;;10.87;7.70;;;;;;;4.15;69.50;96248.13;5013845;28;20214;-83
2021/03/23 03:40:57;;;;;;;11.70;7.87;;;;;;;4.16;69.66;96250.53;5013772;28;20199;-85
2021/03/23 03:43:25;;;;;;;11.20;8.07;;;;;;;4.11;69.65;96251.81;5014144;28;20191;-84
2021/03/23 03:45:52;;;;;;;12.27;7.70;;;;;;;4.08;70.19;96249.50;5013748;28;20237;-84
2021/03/23 03:48:18;;;;;;;12.10;7.77;;;;;;;4.17;69.61;96256.44;5013414;28;20611;-84
2021/03/23 03:50:45;;;;;;;11.50;7.80;;;;;;;4.10;70.23;96256.13;5013713;28;20230;-85
2021/03/23 03:53:12;;;;;;;13.20;8.20;;;;;;;4.11;69.82;96259.47;5014053;28;20301;-84
2021/03/23 03:55:40;;;;;;;13.30;7.03;;;;;;;4.07;69.85;96258.91;5014098;28;20655;-83
2021/03/23 03:58:07;;;;;;;10.50;8.03;;;;;;;4.08;69.86;96257.16;5013057;28;20199;-84
2021/03/23 04:00:35;;;;;;;12.97;8.30;;;;;;;4.04;70.14;96251.50;5012662;28;20295;-85
2021/03/23 04:03:05;;;;;;;12.23;7.90;;;;;;;4.06;70.23;96252.19;5013068;28;20629;-84
2021/03/23 04:05:33;;;;;;;12.17;7.70;;;;;;;4.06;70.34;96253.91;4993260;28;20224;-83
2021/03/23 04:07:59;;;;;;;12.17;7.53;;;;;;;3.95;70.19;96247.13;5012308;28;20842;-84
2021/03/23 04:10:25;;;;;;;12.47;7.73;;;;;;;4.01;70.39;96250.94;5013229;28;20206;-84
2021/03/23 04:12:52;;;;;;;12.70;8.13;;;;;;;4.07;69.69;96251.25;5012574;28;20218;-84
2021/03/23 04:15:20;;;;;;;11.63;7.93;;;;;;;4.08;69.67;96249.50;5013458;28;20227;-80
2021/03/23 04:17:46;;;;;;;11.77;7.80;;;;;;;4.06;69.66;96256.47;5013150;28;20246;-83
2021/03/23 04:20:14;;;;;;;10.20;7.50;;;;;;;4.11;69.87;96249.28;5012982;28;20226;-81
2021/03/23 04:22:41;;;;;;;10.47;7.83;;;;;;;4.09;69.54;96259.59;5013142;28;20269;-82
2021/03/23 04:25:08;;;;;;;13.87;7.67;;;;;;;4.07;70.02;96255.53;5013279;28;20229;-83
2021/03/23 04:27:35;;;;;;;10.03;7.53;;;;;;;4.03;69.85;96249.09;4992934;28;20238;-82
2021/03/23 04:30:01;;;;;;;14.67;7.70;;;;;;;3.96;70.16;96253.84;4998007;28;20215;-82
2021/03/23 04:32:27;;;;;;;10.40;7.83;;;;;;;3.97;70.41;96252.91;5016516;28;20229;-84
2021/03/23 04:34:53;;;;;;;10.17;7.13;;;;;;;3.94;70.11;96257.44;5016674;28;20214;-82
2021/03/23 04:37:19;;;;;;;12.17;8.27;;;;;;;3.94;70.36;96259.97;5017017;28;20667;-79
2021/03/23 04:39:46;;;;;;;15.13;8.63;;;;;;;3.95;70.29;96266.69;5016524;28;20252;-84
2021/03/23 04:42:12;;;;;;;11.07;7.47;;;;;;;3.97;70.21;96265.66;5017072;28;20226;-82
2021/03/23 04:44:38;;;;;;;13.07;8.40;;;;;;;3.86;70.55;96263.09;5015907;28;20865;-83
2021/03/23 04:47:05;;;;;;;13.47;7.67;;;;;;;3.87;70.63;96263.91;5016879;28;20308;-83
2021/03/23 04:49:31;;;;;;;9.97;8.33;;;;;;;3.89;70.93;96267.16;5016462;28;20538;-83
2021/03/23 04:51:57;;;;;;;12.13;8.00;;;;;;;3.88;70.54;96263.81;5016054;28;20234;-80
2021/03/23 04:54:24;;;;;;;12.00;8.07;;;;;;;3.89;70.55;96262.06;5015308;28;20397;-80
2021/03/23 04:56:50;;;;;;;12.70;7.50;;;;;;;3.85;71.24;96270.91;5015901;28;20222;-83
2021/03/23 04:59:16;;;;;;;11.27;8.40;;;;;;;3.86;71.09;96268.19;5016106;28;20241;-79
2021/03/23 05:01:42;;;;;;;12.47;8.10;;;;;;;3.90;70.79;96274.69;5016034;28;20195;-82
2021/03/23 05:04:13;;;;;;;10.80;8.40;;;;;;;3.91;70.97;96280.59;5016504;28;20354;-80
2021/03/23 05:06:39;;;;;;;12.70;8.50;;;;;;;3.81;71.13;96281.31;5015834;28;20226;-83
2021/03/23 05:09:05;;;;;;;13.93;8.80;;;;;;;3.81;71.06;96288.94;5015039;28;20277;-80
2021/03/23 05:11:33;;;;;;;14.70;8.57;;;;;;;3.79;71.18;96290.00;5015906;28;20225;-81
2021/03/23 05:14:00;;;;;;;13.47;8.50;;;;;;;3.81;70.75;96299.13;5015724;28;20223;-80
2021/03/23 05:16:26;;;;;;;11.80;8.50;;;;;;;3.83;70.90;96298.22;5015759;28;20199;-84
2021/03/23 05:18:53;;;;;;;11.83;8.47;;;;;;;3.83;70.88;96295.66;5015331;28;20238;-84
2021/03/23 05:21:19;;;;;;;11.47;8.17;;;;;;;3.72;71.53;96296.47;5015572;28;20226;-82
2021/03/23 05:23:45;;;;;;;12.23;8.73;;;;;;;3.74;71.12;96305.63;5015278;28;20319;-80
2021/03/23 05:26:11;;;;;;;16.23;10.53;;;;;;;3.71;71.55;96297.41;5015749;28;20234;-82
2021/03/23 05:28:38;;;;;;;11.80;8.80;;;;;;;3.67;71.58;96296.00;5016390;28;20678;-80
2021/03/23 05:31:06;;;;;;;14.30;9.23;;;;;;;3.63;71.57;96295.44;5015431;28;20210;-82
2021/03/23 05:33:32;;;;;;;13.40;8.60;;;;;;;3.68;71.50;96290.78;5015901;28;20218;-81
2021/03/23 05:35:59;;;;;;;13.73;9.33;;;;;;;3.70;71.42;96295.78;5015383;28;20231;-82
2021/03/23 05:38:26;;;;;;;14.93;9.43;;;;;;;3.71;71.50;96305.03;5015170;28;20219;-82
2021/03/23 05:40:57;;;;;;;13.37;8.70;;;;;;;3.68;71.70;96303.53;5014088;28;20203;-82
2021/03/23 05:43:42;;;;;;;15.07;8.83;;;;;;;3.68;71.95;96302.72;5015524;28;21058;-79
2021/03/23 05:46:20;;;;;;;12.90;9.27;;;;;;;3.73;71.68;96303.19;5015098;28;20230;-78
2021/03/23 05:48:57;;;;;;;14.07;9.03;;;;;;;3.81;71.46;96316.16;5015152;28;20241;-82
2021/03/23 05:51:27;;;;;;;17.03;9.20;;;;;;;3.85;71.11;96314.97;5014569;28;20218;-81
2021/03/23 05:53:59;;;;;;;12.97;9.20;;;;;;;3.86;70.96;96318.34;5013276;28;20234;-83
2021/03/23 05:56:27;;;;;;;13.40;9.00;;;;;;;3.91;70.82;96319.59;5011433;28;20231;-81
2021/03/23 05:58:59;;;;;;;18.63;9.77;;;;;;;3.94;70.74;96313.47;5014501;28;20261;-82
2021/03/23 06:01:29;;;;;;;17.47;9.23;;;;;;;3.97;70.59;96324.25;5013843;28;20670;-82
2021/03/23 06:04:01;;;;;;;13.67;10.10;;;;;;;3.95;70.75;96326.09;5014129;28;20230;-84
2021/03/23 06:06:37;;;;;;;15.13;9.60;;;;;;;3.95;70.88;96327.84;5013528;28;20230;-83
2021/03/23 06:09:04;;;;;;;13.93;10.47;;;;;;;4.02;70.89;96327.25;5011669;28;20702;-82
2021/03/23 06:11:41;;;;;;;14.93;10.00;;;;;;;4.07;70.79;96337.06;5009522;28;20248;-82
2021/03/23 06:14:32;;;;;;;16.07;9.83;;;;;;;4.11;71.39;96335.91;5012924;28;20292;-81
2021/03/23 06:17:19;;;;;;;14.57;10.77;;;;;;;4.10;71.45;96335.09;5012892;28;20230;-83
2021/03/23 06:19:51;;;;;;;15.37;10.70;;;;;;;4.18;71.11;96338.81;4989778;28;20208;-83
2021/03/23 06:22:31;;;;;;;15.13;10.43;;;;;;;4.23;71.27;96336.72;5010537;28;20210;-82
2021/03/23 06:25:02;;;;;;;16.63;12.20;;;;;;;4.37;70.89;96346.66;5013371;28;20226;-82
2021/03/23 06:27:37;;;;;;;16.53;11.17;;;;;;;4.46;70.42;96338.28;5008667;28;20836;-80
2021/03/23 06:30:20;;;;;;;17.63;10.73;;;;;;;4.48;70.60;96339.78;5006820;28;20225;-82
2021/03/23 06:32:48;;;;;;;16.63;11.47;;;;;;;4.55;70.31;96345.22;5010501;28;20738;-82
2021/03/23 06:35:18;;;;;;;19.33;12.27;;;;;;;4.69;69.79;96344.13;4993283;28;20585;-82
2021/03/23 06:37:45;;;;;;;15.67;11.63;;;;;;;4.79;69.97;96345.03;4993686;28;20200;-81
2021/03/23 06:40:14;;;;;;;16.10;12.37;;;;;;;4.86;69.74;96351.22;4994172;28;20234;-81
2021/03/23 06:42:43;;;;;;;14.50;11.30;;;;;;;5.02;69.28;96350.81;4993779;28;20236;-83
2021/03/23 06:45:19;;;;;;;17.73;11.10;;;;;;;5.19;68.63;96355.38;4997787;28;20241;-81
2021/03/23 06:47:45;;;;;;;15.47;11.97;;;;;;;5.27;68.67;96345.34;5013638;28;20234;-82
2021/03/23 06:50:32;;;;;;;17.60;12.17;;;;;;;5.33;68.22;96364.47;5012884;28;20234;-80
2021/03/23 06:53:11;;;;;;;20.03;12.27;;;;;;;5.44;67.87;96357.53;5012928;28;20869;-80
2021/03/23 06:55:38;;;;;;;21.47;12.80;;;;;;;5.58;67.44;96353.84;5013361;28;20232;-82
2021/03/23 06:58:24;;;;;;;19.80;12.13;;;;;;;5.88;66.73;96359.00;5013757;28;20218;-82
2021/03/23 07:01:12;;;;;;;16.23;12.63;;;;;;;5.90;66.26;96358.88;5012762;28;20329;-82
2021/03/23 07:03:38;;;;;;;19.27;12.40;;;;;;;5.94;66.25;96359.44;5013652;28;20231;-84
2021/03/23 07:06:21;;;;;;;17.50;11.73;;;;;;;5.91;66.38;96365.63;5013893;28;20234;-84
2021/03/23 07:09:10;;;;;;;14.90;11.17;;;;;;;5.83;66.29;96370.50;5013681;28;20248;-81
2021/03/23 07:11:55;;;;;;;15.37;10.83;;;;;;;5.76;66.84;96369.44;5011961;28;20223;-81
2021/03/23 07:14:28;;;;;;;18.37;11.73;;;;;;;5.80;66.82;96363.09;5012034;28;20230;-82
2021/03/23 07:17:19;;;;;;;19.27;11.50;;;;;;;5.85;67.35;96360.97;5000560;28;20710;-82
2021/03/23 07:19:47;;;;;;;15.50;11.87;;;;;;;5.88;66.57;96368.38;5012880;28;20282;-82
2021/03/23 07:22:20;;;;;;;13.37;10.60;;;;;;;5.96;66.59;96370.34;5005244;28;20210;-82
2021/03/23 07:24:53;;;;;;;17.03;11.20;;;;;;;6.15;65.86;96361.00;4993545;28;20243;-82
2021/03/23 07:27:21;;;;;;;16.17;10.70;;;;;;;6.32;65.19;96366.44;4992710;28;20238;-81
2021/03/23 07:29:47;;;;;;;15.13;11.20;;;;;;;6.33;65.03;96370.59;4993276;28;20234;-84
2021/03/23 07:32:35;;;;;;;15.17;11.27;;;;;;;6.41;64.50;96366.44;4992769;28;20223;-83
2021/03/23 07:35:14;;;;;;;14.23;10.70;;;;;;;6.49;63.97;96376.84;5010064;28;20233;-83
2021/03/23 07:37:49;;;;;;;16.27;10.67;;;;;;;6.54;64.03;96374.66;5004442;28;20192;-82
2021/03/23 07:40:27;;;;;;;16.37;10.77;;;;;;;6.45;64.15;96369.53;5002401;28;20230;-83
2021/03/23 07:43:06;;;;;;;19.17;10.83;;;;;;;6.52;65.09;96371.47;5009700;28;20226;-84
2021/03/23 07:45:45;;;;;;;21.57;10.93;;;;;;;6.51;64.62;96367.28;5005026;28;20737;-83
2021/03/23 07:48:19;;;;;;;16.40;10.60;;;;;;;6.49;64.15;96383.69;4993041;28;20239;-82
2021/03/23 07:50:47;;;;;;;13.90;10.67;;;;;;;6.51;63.88;96369.03;5009204;28;20281;-80
2021/03/23 07:53:21;;;;;;;20.03;11.03;;;;;;;6.46;64.24;96377.09;5011720;28;20222;-83
2021/03/23 07:55:49;;;;;;;16.27;10.13;;;;;;;6.41;64.37;96376.66;5012940;28;20268;-80
2021/03/23 07:58:37;;;;;;;16.17;11.03;;;;;;;6.47;63.88;96373.59;5012876;28;20225;-82
2021/03/23 08:01:24;;;;;;;14.40;10.00;;;;;;;6.60;63.27;96373.34;5006946;28;20226;-80
2021/03/23 08:04:05;;;;;;;21.17;11.40;;;;;;;6.78;63.46;96383.72;5012518;28;20236;-82
2021/03/23 08:06:48;;;;;;;16.73;10.80;;;;;;;6.62;63.13;96379.13;5011663;28;20305;-83
2021/03/23 08:10:14;;;;;;;17.37;11.90;;;;;;;6.58;63.13;96373.47;5012741;28;20307;-79
2021/03/23 08:13:03;;;;;;;17.80;10.47;;;;;;;6.72;63.05;96377.41;4951037;28;20275;-83
2021/03/23 08:15:47;;;;;;;17.60;10.63;;;;;;;6.81;62.46;96374.03;4950712;28;20251;-81
2021/03/23 08:18:28;;;;;;;16.40;10.33;;;;;;;6.93;62.45;96379.81;5005862;28;20227;-82
2021/03/23 08:21:28;;;;;;;17.10;11.77;;;;;;;7.08;61.56;96380.25;5012220;28;20231;-83
2021/03/23 08:24:09;;;;;;;16.37;11.33;;;;;;;7.09;61.38;96381.88;4944136;28;20242;-82
2021/03/23 08:26:47;;;;;;;15.93;11.10;;;;;;;7.33;60.80;96378.88;5009795;28;20217;-83
2021/03/23 08:29:20;;;;;;;20.73;11.33;;;;;;;7.42;60.31;96383.19;5019858;28;20218;-81
2021/03/23 08:32:07;;;;;;;14.10;10.83;;;;;;;7.50;60.32;96383.31;5012683;28;20213;-83
2021/03/23 08:34:44;;;;;;;16.53;10.97;;;;;;;7.51;59.70;96382.34;5013058;28;20301;-81
2021/03/23 08:37:36;;;;;;;16.83;10.90;;;;;;;7.54;59.99;96382.88;5013282;28;20349;-84
2021/03/23 08:40:09;;;;;;;17.47;10.93;;;;;;;7.66;60.06;96390.44;5013398;28;20237;-85
2021/03/23 08:42:37;;;;;;;16.03;10.70;;;;;;;7.82;59.46;96390.66;5013712;28;20242;-84
2021/03/23 08:45:07;;;;;;;15.83;10.33;;;;;;;7.96;59.16;96388.44;5016946;28;20246;-83
2021/03/23 08:47:37;;;;;;;14.77;10.17;;;;;;;7.88;57.91;96390.09;5017086;28;20308;-83
2021/03/23 08:50:09;;;;;;;15.80;10.13;;;;;;;7.98;57.95;96389.09;5017219;28;20261;-82
2021/03/23 08:52:41;;;;;;;14.93;10.50;;;;;;;8.07;57.93;96394.34;5017921;28;20207;-83
2021/03/23 08:55:43;;;;;;;15.00;10.10;;;;;;;8.22;58.02;96393.75;5017744;28;20233;-83
2021/03/23 08:58:19;;;;;;;18.73;10.53;;;;;;;8.27;57.14;96401.81;5017491;28;20273;-84
2021/03/23 09:01:04;;;;;;;17.67;9.60;;;;;;;8.13;56.31;96399.72;5016984;28;20230;-82
2021/03/23 09:03:52;;;;;;;14.63;9.13;;;;;;;8.36;55.75;96392.50;5016176;28;20233;-83
2021/03/23 09:06:19;;;;;;;14.70;8.87;;;;;;;8.64;56.28;96390.72;5012248;28;20713;-83
2021/03/23 09:08:48;;;;;;;13.43;9.23;;;;;;;8.78;56.09;96395.34;5012417;28;20237;-84
2021/03/23 09:11:34;;;;;;;13.13;8.53;;;;;;;8.86;53.94;96390.28;5011894;28;20230;-82
2021/03/23 09:14:23;;;;;;;10.70;7.43;;;;;;;8.95;53.53;96391.19;5011864;28;20223;-83
2021/03/23 09:16:52;;;;;;;13.57;9.03;;;;;;;8.98;53.58;96389.13;5013029;28;20191;-83
2021/03/23 09:19:37;;;;;;;11.43;8.17;;;;;;;8.98;53.66;96390.91;5016890;28;20199;-81
2021/03/23 09:22:28;;;;;;;11.23;8.00;;;;;;;8.97;52.50;96391.84;5016333;28;20264;-84
2021/03/23 09:25:42;;;;;;;12.97;8.43;;;;;;;8.69;52.83;96393.66;5015844;28;20229;-83
2021/03/23 09:28:09;;;;;;;10.60;8.20;;;;;;;8.87;53.87;96391.09;5015663;28;20638;-83
2021/03/23 09:30:51;;;;;;;11.23;8.37;;;;;;;9.51;51.93;96387.47;5015428;28;20265;-84
2021/03/23 09:33:29;;;;;;;14.10;7.30;;;;;;;10.10;50.49;96388.47;5015214;28;20330;-79
2021/03/23 09:36:42;;;;;;;9.00;6.90;;;;;;;10.51;47.76;96385.13;5000611;28;20229;-85
2021/03/23 09:39:44;;;;;;;10.10;6.87;;;;;;;10.52;46.69;96379.03;5015351;28;20718;-85
2021/03/23 09:42:31;;;;;;;12.07;6.00;;;;;;;10.64;45.37;96376.94;4996216;28;20230;-84
2021/03/23 09:45:33;;;;;;;8.90;6.10;;;;;;;10.60;44.09;96383.38;5011423;28;20326;-84
2021/03/23 09:48:28;;;;;;;9.00;5.50;;;;;;;10.89;44.90;96372.66;5014396;28;20230;-84
2021/03/23 09:51:00;;;;;;;7.73;5.33;;;;;;;11.02;44.20;96365.25;5009191;28;20227;-84
2021/03/23 09:53:58;;;;;;;7.50;4.63;;;;;;;10.95;42.85;96372.84;5013936;28;20254;-85
2021/03/23 09:56:33;;;;;;;9.03;5.90;;;;;;;10.95;43.35;96370.25;5000515;28;20231;-84
2021/03/23 09:59:04;;;;;;;7.07;5.60;;;;;;;10.56;45.35;96370.03;5012283;28;20572;-84
2021/03/23 10:01:30;;;;;;;8.30;5.40;;;;;;;10.00;45.03;96366.25;5013819;28;20199;-84
2021/03/23 10:03:58;;;;;;;7.17;5.20;;;;;;;9.69;45.83;96371.03;5014043;28;20307;-85
2021/03/23 10:06:26;;;;;;;11.40;5.57;;;;;;;9.16;46.67;96375.47;5013694;28;20276;-85
2021/03/23 10:08:56;;;;;;;9.93;4.83;;;;;;;9.07;46.56;96368.63;5012934;28;20246;-85
2021/03/23 10:11:24;;;;;;;8.87;6.17;;;;;;;8.89;48.29;96364.31;5012611;28;20234;-83
2021/03/23 10:13:55;;;;;;;9.07;6.30;;;;;;;8.79;49.68;96373.06;5013387;28;20289;-83
2021/03/23 10:16:28;;;;;;;12.00;6.53;;;;;;;8.71;50.17;96373.78;5013429;28;20218;-83
2021/03/23 10:18:57;;;;;;;8.87;5.60;;;;;;;8.53;49.84;96365.25;5013138;28;20249;-84
2021/03/23 10:21:29;;;;;;;9.80;5.67;;;;;;;8.40;47.92;96369.94;5013158;28;20906;-84
2021/03/23 10:23:59;;;;;;;9.53;5.03;;;;;;;8.36;49.01;96371.16;5013295;28;20504;-85
2021/03/23 10:26:32;;;;;;;10.13;5.83;;;;;;;8.23;49.61;96369.72;5009219;28;20242;-83
2021/03/23 10:29:11;;;;;;;10.27;6.07;;;;;;;8.06;49.99;96379.91;5011905;28;20198;-84
2021/03/23 10:31:41;;;;;;;10.17;6.27;;;;;;;8.03;50.16;96373.31;5013143;28;20663;-82
2021/03/23 10:34:14;;;;;;;8.30;5.97;;;;;;;8.01;50.51;96377.78;5013018;28;20222;-82
2021/03/23 10:37:01;;;;;;;7.33;5.10;;;;;;;7.96;50.55;96378.19;5007320;28;20247;-83
2021/03/23 10:39:47;;;;;;;9.33;5.63;;;;;;;7.88;50.99;96378.09;4996802;28;20306;-81
2021/03/23 10:42:22;;;;;;;8.33;5.80;;;;;;;7.88;51.08;96369.59;5010571;28;20802;-82
2021/03/23 10:44:50;;;;;;;9.17;6.20;;;;;;;7.86;51.48;96379.19;5013595;28;20237;-84
2021/03/23 10:47:30;;;;;;;7.27;5.40;;;;;;;7.84;51.15;96373.38;5013419;28;20235;-81
2021/03/23 10:50:12;;;;;;;6.97;6.07;;;;;;;7.82;52.03;96380.41;5013079;28;20607;-83
2021/03/23 10:52:39;;;;;;;8.47;6.80;;;;;;;7.76;52.84;96383.50;5013607;28;20222;-84
2021/03/23 10:55:18;;;;;;;8.60;6.10;;;;;;;7.85;52.02;96377.56;5013095;28;20271;-83
2021/03/23 10:57:47;;;;;;;7.33;6.00;;;;;;;7.87;52.35;96386.72;5012891;28;20241;-82
2021/03/23 11:00:27;;;;;;;8.63;5.83;;;;;;;7.95;51.79;96379.13;5012773;28;20225;-84
2021/03/23 11:02:53;;;;;;;8.87;6.10;;;;;;;8.01;52.03;96376.97;5013344;28;20309;-84
2021/03/23 11:05:21;;;;;;;9.57;6.03;;;;;;;7.95;51.86;96375.75;5012013;28;20223;-84
2021/03/23 11:08:02;;;;;;;9.07;6.50;;;;;;;8.02;52.39;96373.44;5008034;28;20269;-84
2021/03/23 11:10:32;;;;;;;10.97;7.30;;;;;;;8.04;52.57;96367.22;5012716;28;20262;-80
2021/03/23 11:12:59;;;;;;;13.50;7.57;;;;;;;8.14;52.64;96370.56;5012829;28;20253;-81
2021/03/23 11:15:25;;;;;;;9.33;6.40;;;;;;;8.17;52.41;96370.28;5011470;28;20238;-82
2021/03/23 11:17:53;;;;;;;8.50;6.83;;;;;;;8.28;51.82;96357.25;5012744;28;20252;-83
2021/03/23 11:20:27;;;;;;;9.40;5.77;;;;;;;8.31;50.06;96361.28;5012848;28;20230;-82
2021/03/23 11:22:57;;;;;;;10.07;5.60;;;;;;;8.35;49.60;96361.84;5012095;28;20198;-84
2021/03/23 11:25:26;;;;;;;5.63;4.43;;;;;;;8.31;48.05;96359.53;5012966;28;20222;-81
2021/03/23 11:27:53;;;;;;;7.93;4.63;;;;;;;8.34;48.08;96358.47;5011807;28;20262;-85
2021/03/23 11:30:20;;;;;;;8.53;5.10;;;;;;;8.41;49.38;96358.72;5012024;28;20233;-84
2021/03/23 11:32:48;;;;;;;8.87;5.90;;;;;;;8.55;49.82;96356.44;5013055;28;20237;-85
2021/03/23 11:35:15;;;;;;;7.73;6.23;;;;;;;8.50;50.74;96361.19;5012650;28;20422;-84
2021/03/23 11:37:41;;;;;;;7.80;5.80;;;;;;;8.45;48.81;96347.22;5012109;28;20230;-85
2021/03/23 11:40:10;;;;;;;11.27;5.43;;;;;;;8.49;49.26;96349.31;5012261;28;20199;-84
2021/03/23 11:42:41;;;;;;;6.40;4.87;;;;;;;8.52;48.75;96358.50;5011289;28;20226;-84
2021/03/23 11:45:18;;;;;;;9.47;5.40;;;;;;;8.58;48.47;96360.50;5011499;28;20676;-84
2021/03/23 11:47:53;;;;;;;6.87;4.97;;;;;;;8.72;48.55;96356.63;5012039;28;20238;-83
2021/03/23 11:50:22;;;;;;;6.73;4.67;;;;;;;8.77;48.35;96354.41;5012435;28;20206;-84
2021/03/23 11:52:49;;;;;;;8.80;4.90;;;;;;;8.81;48.53;96350.63;5012442;28;20288;-85
2021/03/23 11:55:22;;;;;;;5.73;4.80;;;;;;;8.72;48.12;96351.47;5013176;28;20253;-84
2021/03/23 11:57:48;;;;;;;6.63;4.83;;;;;;;8.74;48.95;96352.13;5012430;28;20230;-84
2021/03/23 12:00:15;;;;;;;7.00;5.00;;;;;;;8.69;48.68;96350.00;5012094;28;20206;-85